Time;durP1;ratioP1;P1;durP2;ratioP2;P2;SDS_P1;SDS_P2;PMS_P1;PMS_P2;Temp;Humidity;BMP_temperature;BMP_pressure;BME280_temperature;BME280_humidity;BME280_pressure;Samples;Min_cycle;Max_cycle;Signal;HPM_P1;HPM_P2
2023/10/20 00:00:18;;;;;;;;;;;14.80;99.90;;;14.54;100.00;94733.28;5046590;28;1696;-75
2023/10/20 00:02:45;;;;;;;;;;;14.80;99.90;;;14.53;100.00;94732.47;5032752;28;1705;-74
2023/10/20 00:05:13;;;;;;;;;;;14.90;99.90;;;14.47;100.00;94738.34;5046307;28;1579;-75
2023/10/20 00:07:41;;;;;;;;;;;14.90;99.90;;;14.48;100.00;94742.56;5048926;28;1687;-75
2023/10/20 00:10:11;;;;;;;;;;;14.90;99.90;;;14.49;100.00;94743.41;5046502;28;2027;-75
2023/10/20 00:12:39;;;;;;;;;;;14.80;99.90;;;14.40;100.00;94735.53;5043594;28;1653;-75
2023/10/20 00:15:09;;;;;;;;;;;14.80;99.90;;;14.43;100.00;94756.09;5028618;28;1774;-75
2023/10/20 00:17:36;;;;;;;;;;;14.80;99.90;;;14.44;100.00;94769.97;5030389;28;1635;-76
2023/10/20 00:20:03;;;;;;;;;;;14.70;99.90;;;14.39;100.00;94765.22;5042052;28;1586;-75
2023/10/20 00:22:31;;;;;;;;;;;14.60;99.90;;;14.41;100.00;94762.44;5045631;28;1550;-76
2023/10/20 00:24:58;;;;;;;;;;;14.70;99.90;;;14.54;100.00;94757.63;5033438;28;1988;-75
2023/10/20 00:27:25;;;;;;;;;;;14.80;99.90;;;14.51;100.00;94752.69;5030237;28;1645;-75
2023/10/20 00:29:52;;;;;;;;;;;14.70;99.90;;;14.40;100.00;94753.00;5036000;28;2011;-75
2023/10/20 00:32:19;;;;;;;;;;;14.80;99.90;;;14.43;100.00;94763.91;5048993;28;1958;-76
2023/10/20 00:34:46;;;;;;;;;;;14.70;99.90;;;14.38;100.00;94752.31;5044062;28;1578;-75
2023/10/20 00:37:13;;;;;;;;;;;14.70;99.90;;;14.43;100.00;94743.03;5044086;28;1725;-75
2023/10/20 00:39:40;;;;;;;;;;;14.60;99.90;;;14.37;100.00;94746.31;5030214;28;1582;-75
2023/10/20 00:42:07;;;;;;;;;;;14.60;99.90;;;14.37;100.00;94732.44;5034328;28;1654;-75
2023/10/20 00:44:34;;;;;;;;;;;14.60;99.90;;;14.36;100.00;94718.56;5031199;28;1607;-76
2023/10/20 00:47:02;;;;;;;;;;;14.60;99.90;;;14.30;100.00;94734.03;5044489;28;1617;-76
2023/10/20 00:49:29;;;;;;;;;;;14.60;99.90;;;14.28;100.00;94720.31;5030820;28;1982;-76
2023/10/20 00:51:56;;;;;;;;;;;14.50;99.90;;;14.28;100.00;94722.94;5031647;28;1600;-76
2023/10/20 00:54:23;;;;;;;;;;;14.50;99.90;;;14.21;100.00;94713.13;5026704;28;1570;-75
2023/10/20 00:56:52;;;;;;;;;;;14.50;99.90;;;14.19;100.00;94706.44;5030159;28;1549;-76
2023/10/20 00:59:19;;;;;;;;;;;14.50;99.90;;;14.21;100.00;94704.50;5027541;28;1550;-75
2023/10/20 01:01:46;;;;;;;;;;;14.40;99.90;;;14.23;100.00;94700.75;5029665;28;1584;-75
2023/10/20 01:04:14;;;;;;;;;;;14.40;99.90;;;14.21;100.00;94694.06;5016009;28;1575;-75
2023/10/20 01:06:44;;;;;;;;;;;14.40;99.90;;;14.14;100.00;94687.81;5025806;28;1532;-75
2023/10/20 01:09:11;;;;;;;;;;;14.40;99.90;;;14.15;100.00;94679.84;5046179;28;1378;-75
2023/10/20 01:11:38;;;;;;;;;;;14.40;99.90;;;14.06;100.00;94678.19;5044868;28;1906;-75
2023/10/20 01:14:05;;;;;;;;;;;14.40;99.90;;;14.08;100.00;94680.66;5024766;28;1369;-75
2023/10/20 01:16:32;;;;;;;;;;;14.40;99.90;;;14.16;100.00;94678.91;5032918;28;1677;-75
2023/10/20 01:19:00;;;;;;;;;;;14.30;99.90;;;14.00;100.00;94655.34;5044310;28;1585;-75
2023/10/20 01:21:26;;;;;;;;;;;14.30;99.90;;;14.09;100.00;94659.59;5045528;28;1631;-76
2023/10/20 01:23:54;;;;;;;;;;;14.40;99.90;;;14.10;100.00;94644.81;5030967;28;1661;-76
2023/10/20 01:26:21;;;;;;;;;;;14.30;99.90;;;14.07;100.00;94650.31;5046057;28;1733;-75
2023/10/20 01:28:48;;;;;;;;;;;14.30;99.90;;;14.11;100.00;94639.41;5045779;28;1772;-75
2023/10/20 01:31:15;;;;;;;;;;;14.40;99.90;;;13.98;100.00;94639.03;5029371;28;1995;-75
2023/10/20 01:33:41;;;;;;;;;;;14.30;99.90;;;14.13;100.00;94647.88;5028336;28;1785;-75
2023/10/20 01:36:08;;;;;;;;;;;14.30;99.90;;;14.07;100.00;94637.28;5039943;28;1594;-76
2023/10/20 01:38:35;;;;;;;;;;;14.40;99.90;;;14.10;100.00;94626.53;5039837;28;1687;-76
2023/10/20 01:41:02;;;;;;;;;;;14.30;99.90;;;14.08;100.00;94616.25;5022298;28;1662;-76
2023/10/20 01:43:29;;;;;;;;;;;14.30;99.90;;;14.19;100.00;94604.72;5031766;28;1350;-76
2023/10/20 01:45:56;;;;;;;;;;;14.40;99.90;;;14.20;100.00;94609.75;5022068;28;1905;-76
2023/10/20 01:48:23;;;;;;;;;;;14.40;99.90;;;14.07;100.00;94605.97;5019299;28;2036;-76
2023/10/20 01:50:50;;;;;;;;;;;14.40;99.90;;;14.14;100.00;94602.59;5044349;28;1906;-76
2023/10/20 01:53:17;;;;;;;;;;;14.40;99.90;;;14.17;100.00;94588.41;5039813;28;1411;-76
2023/10/20 01:55:49;;;;;;;;;;;14.40;99.90;;;14.18;100.00;94583.00;5026292;28;1696;-76
2023/10/20 01:58:20;;;;;;;;;;;14.40;99.90;;;14.10;100.00;94583.00;5019738;28;1570;-75
2023/10/20 02:00:50;;;;;;;;;;;14.30;99.90;;;14.17;100.00;94577.97;5022543;28;1541;-75
2023/10/20 02:03:19;;;;;;;;;;;14.30;99.90;;;14.16;100.00;94577.16;5040322;28;1537;-75
2023/10/20 02:05:46;;;;;;;;;;;14.30;99.90;;;14.17;100.00;94584.00;5044472;28;1593;-75
2023/10/20 02:08:15;;;;;;;;;;;14.30;99.90;;;14.13;100.00;94574.06;5028371;28;1598;-75
2023/10/20 02:10:45;;;;;;;;;;;14.20;99.90;;;14.15;100.00;94551.22;5042828;28;1996;-75
2023/10/20 02:13:12;;;;;;;;;;;14.20;99.90;;;14.23;100.00;94538.19;5045114;28;1952;-76
2023/10/20 02:15:47;;;;;;;;;;;14.30;99.90;;;14.05;100.00;94524.47;5017113;28;1651;-75
2023/10/20 02:18:14;;;;;;;;;;;14.30;99.90;;;14.13;100.00;94527.91;5033139;28;1559;-76
2023/10/20 02:20:43;;;;;;;;;;;14.30;99.90;;;14.13;100.00;94527.09;5042792;28;1653;-76
2023/10/20 02:23:11;;;;;;;;;;;14.30;99.90;;;14.27;100.00;94515.19;5041829;28;1741;-76
2023/10/20 02:25:38;;;;;;;;;;;14.40;99.90;;;14.31;100.00;94524.34;5038356;28;1641;-76
2023/10/20 02:28:05;;;;;;;;;;;14.40;99.90;;;14.34;100.00;94508.34;5042886;28;1625;-76
2023/10/20 02:30:32;;;;;;;;;;;14.40;99.90;;;14.24;100.00;94511.13;5049876;28;1902;-76
2023/10/20 02:33:01;;;;;;;;;;;14.40;99.90;;;14.29;100.00;94514.06;5035964;28;1593;-76
2023/10/20 02:35:29;;;;;;;;;;;14.40;99.90;;;14.29;100.00;94493.19;5051562;28;1772;-76
2023/10/20 02:37:55;;;;;;;;;;;14.40;99.90;;;14.21;100.00;94493.22;5039601;28;1602;-76
2023/10/20 02:40:22;;;;;;;;;;;14.40;99.90;;;14.25;100.00;94483.25;5053333;28;1866;-76
2023/10/20 02:42:49;;;;;;;;;;;14.40;99.90;;;14.18;100.00;94485.69;5052631;28;1609;-76
2023/10/20 02:45:17;;;;;;;;;;;14.40;99.90;;;14.20;100.00;94466.28;5050475;28;1578;-76
2023/10/20 02:47:44;;;;;;;;;;;14.40;99.90;;;14.11;100.00;94462.03;5035705;28;2010;-76
2023/10/20 02:50:11;;;;;;;;;;;14.40;99.90;;;14.23;100.00;94459.91;5048522;28;2002;-76
2023/10/20 02:52:38;;;;;;;;;;;14.40;99.90;;;14.18;100.00;94457.81;5049645;28;1625;-76
2023/10/20 02:55:05;;;;;;;;;;;14.40;99.90;;;14.10;100.00;94462.22;5049658;28;1744;-76
2023/10/20 02:57:32;;;;;;;;;;;14.40;99.90;;;14.08;100.00;94451.16;5045046;28;1566;-76
2023/10/20 02:59:59;;;;;;;;;;;14.30;99.90;;;14.05;100.00;94439.25;5050680;28;1381;-76
2023/10/20 03:02:26;;;;;;;;;;;14.30;99.90;;;14.12;100.00;94436.81;5049693;28;1558;-76
2023/10/20 03:04:54;;;;;;;;;;;14.30;99.90;;;14.20;100.00;94429.75;5045323;28;1604;-75
2023/10/20 03:07:27;;;;;;;;;;;14.30;99.90;;;14.04;100.00;94424.56;5042542;28;1704;-76
2023/10/20 03:09:54;;;;;;;;;;;14.30;99.90;;;14.02;100.00;94405.66;5034722;28;1683;-75
2023/10/20 03:12:21;;;;;;;;;;;14.30;99.90;;;14.06;100.00;94390.50;5034526;28;1882;-75
2023/10/20 03:14:49;;;;;;;;;;;14.30;99.90;;;14.09;100.00;94393.59;5035517;28;1553;-76
2023/10/20 03:17:16;;;;;;;;;;;14.30;99.90;;;14.04;100.00;94382.84;5048153;28;1585;-75
2023/10/20 03:19:46;;;;;;;;;;;14.30;99.90;;;14.01;100.00;94402.25;5049033;28;1767;-75
2023/10/20 03:22:13;;;;;;;;;;;14.20;99.90;;;13.95;100.00;94399.47;5048368;28;1696;-75
2023/10/20 03:24:41;;;;;;;;;;;14.20;99.90;;;13.94;100.00;94382.22;5049771;28;1511;-76
2023/10/20 03:27:08;;;;;;;;;;;14.20;99.90;;;13.90;100.00;94373.09;5018555;28;1599;-76
2023/10/20 03:29:36;;;;;;;;;;;14.20;99.90;;;13.90;100.00;94367.88;5016490;28;1540;-75
2023/10/20 03:32:03;;;;;;;;;;;14.20;99.90;;;13.94;100.00;94369.16;5051936;28;1987;-75
2023/10/20 03:34:33;;;;;;;;;;;14.20;99.90;;;13.97;100.00;94348.78;5034752;28;1975;-76
2023/10/20 03:37:00;;;;;;;;;;;14.20;99.90;;;13.83;100.00;94341.63;5018651;28;1671;-76
2023/10/20 03:39:28;;;;;;;;;;;14.20;99.90;;;13.88;100.00;94335.94;5035005;28;1594;-75
2023/10/20 03:41:55;;;;;;;;;;;14.10;99.90;;;13.91;100.00;94348.63;5046808;28;1807;-76
2023/10/20 03:44:22;;;;;;;;;;;14.00;99.90;;;13.85;100.00;94342.28;5033476;28;1614;-76
2023/10/20 03:46:49;;;;;;;;;;;14.00;99.90;;;13.72;100.00;94334.97;5037337;28;1676;-76
2023/10/20 03:49:18;;;;;;;;;;;14.00;99.90;;;13.79;100.00;94330.72;5033984;28;1567;-76
2023/10/20 03:51:49;;;;;;;;;;;14.00;99.90;;;13.83;100.00;94317.38;5032734;28;1903;-76
2023/10/20 03:54:17;;;;;;;;;;;14.00;99.90;;;13.92;100.00;94305.94;5031986;28;1658;-76
2023/10/20 03:56:46;;;;;;;;;;;14.00;99.90;;;13.88;100.00;94284.59;5035797;28;1634;-76
2023/10/20 03:59:14;;;;;;;;;;;14.00;99.90;;;13.90;100.00;94282.63;5033864;28;1975;-76
2023/10/20 04:01:42;;;;;;;;;;;14.10;99.90;;;13.92;100.00;94270.25;5026911;28;1564;-76
2023/10/20 04:04:11;;;;;;;;;;;14.10;99.90;;;13.89;100.00;94260.16;5029920;28;1493;-76
2023/10/20 04:06:39;;;;;;;;;;;14.10;99.90;;;13.90;100.00;94255.75;5026884;28;1564;-76
2023/10/20 04:09:09;;;;;;;;;;;14.20;99.90;;;13.92;100.00;94246.78;5042981;28;1594;-76
2023/10/20 04:11:37;;;;;;;;;;;14.20;99.90;;;13.90;100.00;94235.72;5026561;28;1902;-76
2023/10/20 04:14:06;;;;;;;;;;;14.10;99.90;;;13.89;100.00;94225.44;5031926;28;1612;-76
2023/10/20 04:16:39;;;;;;;;;;;14.20;99.90;;;13.88;100.00;94211.59;5028726;28;1561;-76
2023/10/20 04:19:10;;;;;;;;;;;14.20;99.90;;;13.92;100.00;94188.63;5025300;28;1667;-76
2023/10/20 04:21:39;;;;;;;;;;;14.20;99.90;;;13.95;100.00;94178.66;5029634;28;1550;-76
2023/10/20 04:24:12;;;;;;;;;;;14.20;99.90;;;13.90;100.00;94180.16;5032465;28;1429;-76
2023/10/20 04:26:43;;;;;;;;;;;14.10;99.90;;;13.93;100.00;94167.56;5026872;28;1708;-76
2023/10/20 04:54:02;;;;;;;;;;;14.00;99.90;;;13.89;100.00;94168.09;5032835;28;1407;-75
2023/10/20 04:56:37;;;;;;;;;;;14.00;99.90;;;13.86;100.00;94171.03;5047755;28;1542;-75
2023/10/20 04:59:05;;;;;;;;;;;14.00;99.90;;;13.84;100.00;94163.38;5042442;28;1597;-76
2023/10/20 05:07:08;;;;;;;;;;;14.00;99.90;;;13.87;100.00;94144.00;5046901;28;1895;-76
2023/10/20 05:09:43;;;;;;;;;;;14.10;99.90;;;13.83;100.00;94140.09;5029810;28;1458;-76
2023/10/20 05:12:10;;;;;;;;;;;14.00;99.90;;;13.89;100.00;94127.22;5027687;28;1969;-76
2023/10/20 05:14:37;;;;;;;;;;;14.10;99.90;;;13.88;100.00;94132.59;5028294;28;1592;-76
2023/10/20 05:17:06;;;;;;;;;;;14.10;99.90;;;13.92;100.00;94126.06;5044097;28;1550;-75
2023/10/20 05:19:36;;;;;;;;;;;14.10;99.90;;;13.91;100.00;94124.41;5044728;28;1663;-76
2023/10/20 05:22:03;;;;;;;;;;;14.10;99.90;;;13.92;100.00;94115.63;5045824;28;1668;-76
2023/10/20 05:24:30;;;;;;;;;;;14.10;99.90;;;13.90;100.00;94120.19;5044878;28;1959;-76
2023/10/20 05:26:58;;;;;;;;;;;14.20;99.90;;;13.82;100.00;94105.38;5046824;28;1614;-75
2023/10/20 05:29:25;;;;;;;;;;;14.20;99.90;;;13.87;100.00;94095.28;5025660;28;1805;-75
2023/10/20 05:31:52;;;;;;;;;;;14.20;99.90;;;13.89;100.00;94087.25;5039584;28;1981;-75
2023/10/20 05:34:19;;;;;;;;;;;14.20;99.90;;;13.86;100.00;94092.84;5044688;28;1586;-75
2023/10/20 05:36:46;;;;;;;;;;;14.10;99.90;;;13.91;100.00;94086.13;5043570;28;1713;-75
2023/10/20 05:39:13;;;;;;;;;;;14.10;99.90;;;13.79;100.00;94077.88;5012673;28;1620;-76
2023/10/20 05:41:41;;;;;;;;;;;14.20;99.90;;;13.87;100.00;94058.78;5027561;28;1726;-76
2023/10/20 05:44:11;;;;;;;;;;;14.10;99.90;;;13.90;100.00;94047.19;5021380;28;1691;-76
2023/10/20 05:46:40;;;;;;;;;;;14.20;99.90;;;13.85;100.00;94033.88;5040338;28;1605;-76
2023/10/20 05:49:10;;;;;;;;;;;14.10;99.90;;;13.78;100.00;94023.31;5025962;28;1571;-76
2023/10/20 05:51:37;;;;;;;;;;;14.10;99.90;;;13.80;100.00;94018.75;5039670;28;1894;-76
2023/10/20 05:54:06;;;;;;;;;;;14.10;99.90;;;13.77;100.00;94017.28;5044573;28;1753;-76
2023/10/20 05:56:33;;;;;;;;;;;14.10;99.90;;;13.77;100.00;94006.84;5026206;28;1611;-75
2023/10/20 05:59:00;;;;;;;;;;;14.10;99.90;;;13.84;100.00;93999.16;5025288;28;1717;-76
2023/10/20 06:01:27;;;;;;;;;;;14.10;99.90;;;13.75;100.00;93998.41;5041292;28;1637;-75
2023/10/20 06:03:54;;;;;;;;;;;14.10;99.90;;;13.83;100.00;93989.72;5029464;28;1531;-75
2023/10/20 06:06:21;;;;;;;;;;;14.10;99.90;;;13.83;100.00;93979.28;5041047;28;1521;-76
2023/10/20 06:08:49;;;;;;;;;;;14.10;99.90;;;13.81;100.00;93983.88;5029600;28;1436;-75
2023/10/20 06:11:16;;;;;;;;;;;14.10;99.90;;;13.74;100.00;93972.50;5041115;28;1898;-75
2023/10/20 06:13:43;;;;;;;;;;;14.10;99.90;;;13.75;100.00;93968.91;5043684;28;1566;-76
2023/10/20 06:16:10;;;;;;;;;;;14.10;99.90;;;13.84;100.00;93969.66;5026940;28;1396;-76
2023/10/20 06:18:39;;;;;;;;;;;14.10;99.90;;;13.86;100.00;93978.94;5010958;28;1684;-75
2023/10/20 06:21:14;;;;;;;;;;;14.10;99.90;;;13.83;100.00;93966.25;5040534;28;1557;-75
2023/10/20 06:23:41;;;;;;;;;;;14.20;99.90;;;13.88;100.00;93968.34;5022533;28;1556;-75
2023/10/20 06:26:09;;;;;;;;;;;14.10;99.90;;;13.86;100.00;93962.50;5040582;28;1902;-75
2023/10/20 06:28:36;;;;;;;;;;;14.10;99.90;;;13.84;100.00;93960.06;5019111;28;1557;-75
2023/10/20 06:31:27;;;;;;;;;;;14.20;99.90;;;13.88;100.00;93955.31;5006857;28;1906;-75
2023/10/20 06:33:59;;;;;;;;;;;14.20;99.90;;;13.80;100.00;93946.56;5023741;28;1546;-75
2023/10/20 06:36:27;;;;;;;;;;;14.20;99.90;;;13.81;100.00;93940.34;5041309;28;1678;-75
2023/10/20 06:38:54;;;;;;;;;;;14.10;99.90;;;13.85;100.00;93950.47;5026541;28;1181;-75
2023/10/20 06:41:21;;;;;;;;;;;14.20;99.90;;;13.84;100.00;93941.00;5025841;28;1537;-76
2023/10/20 06:43:48;;;;;;;;;;;14.20;99.90;;;13.82;100.00;93930.75;5040572;28;1502;-75
2023/10/20 06:46:16;;;;;;;;;;;14.20;99.90;;;13.91;100.00;93941.91;5039651;28;1662;-75
2023/10/20 06:48:43;;;;;;;;;;;14.20;99.90;;;13.84;100.00;93936.59;5044582;28;1550;-75
2023/10/20 06:51:10;;;;;;;;;;;14.20;99.90;;;13.94;100.00;93939.78;5041565;28;1988;-76
2023/10/20 06:53:37;;;;;;;;;;;14.20;99.90;;;13.93;100.00;93943.34;5025527;28;1592;-75
2023/10/20 06:56:05;;;;;;;;;;;14.20;99.90;;;13.92;100.00;93943.56;5028901;28;1569;-76
2023/10/20 06:58:42;;;;;;;;;;;14.20;99.90;;;13.91;100.00;93932.31;5028554;28;1566;-75
2023/10/20 07:01:10;;;;;;;;;;;14.20;99.90;;;13.95;100.00;93937.97;5026401;28;1634;-75
2023/10/20 07:03:36;;;;;;;;;;;14.30;99.90;;;14.11;100.00;93942.25;5024278;28;1569;-75
2023/10/20 07:06:07;;;;;;;;;;;14.30;99.90;;;14.02;100.00;93941.50;5010879;28;1539;-76
2023/10/20 07:08:35;;;;;;;;;;;14.30;99.90;;;13.97;100.00;93936.81;5024040;28;1546;-75
2023/10/20 07:11:03;;;;;;;;;;;14.30;99.90;;;13.95;100.00;93943.19;5037246;28;1566;-75
2023/10/20 07:13:31;;;;;;;;;;;14.30;99.90;;;14.00;100.00;93949.53;5037026;28;1505;-75
2023/10/20 07:15:58;;;;;;;;;;;14.30;99.90;;;14.04;100.00;93933.53;5036159;28;1605;-75
2023/10/20 07:18:26;;;;;;;;;;;14.30;99.90;;;14.09;100.00;93928.59;5045441;28;1553;-75
2023/10/20 07:20:54;;;;;;;;;;;14.30;99.90;;;14.20;100.00;93926.34;5031800;28;1548;-75
2023/10/20 07:23:24;;;;;;;;;;;14.40;99.90;;;14.14;100.00;93931.47;5043691;28;1433;-75
2023/10/20 07:25:52;;;;;;;;;;;14.50;99.90;;;14.27;100.00;93938.69;5030135;28;1566;-75
2023/10/20 07:28:21;;;;;;;;;;;14.50;99.90;;;14.29;100.00;93934.91;5050486;28;1275;-75
2023/10/20 07:30:49;;;;;;;;;;;14.50;99.90;;;14.26;100.00;93942.31;5031519;28;1446;-75
2023/10/20 07:33:16;;;;;;;;;;;14.50;99.90;;;14.31;100.00;93939.97;5045081;28;1914;-76
2023/10/20 07:35:43;;;;;;;;;;;14.50;99.90;;;14.34;100.00;93943.00;5015202;28;1377;-76
2023/10/20 07:38:12;;;;;;;;;;;14.60;99.90;;;14.23;100.00;93933.84;5047192;28;1664;-74
2023/10/20 07:40:40;;;;;;;;;;;14.60;99.90;;;14.33;100.00;93946.63;5029896;28;1793;-74
2023/10/20 07:43:07;;;;;;;;;;;14.60;99.90;;;14.38;100.00;93953.91;5045958;28;1713;-75
2023/10/20 07:45:40;;;;;;;;;;;14.60;99.90;;;14.35;100.00;93962.13;5044945;28;1507;-75
2023/10/20 07:48:08;;;;;;;;;;;14.60;99.90;;;14.35;100.00;93968.13;5043118;28;1684;-75
2023/10/20 07:50:35;;;;;;;;;;;14.70;99.90;;;14.22;100.00;93971.31;5024715;28;1611;-76
2023/10/20 07:53:03;;;;;;;;;;;14.60;99.90;;;14.29;100.00;93968.81;5046261;28;1975;-75
2023/10/20 07:55:31;;;;;;;;;;;14.60;99.90;;;14.34;100.00;93979.53;5046661;28;1585;-76
2023/10/20 07:57:58;;;;;;;;;;;14.60;99.90;;;14.35;100.00;93973.34;5026934;28;1595;-76
2023/10/20 08:00:24;;;;;;;;;;;14.60;99.90;;;14.34;100.00;93984.75;5043215;28;1570;-76
2023/10/20 08:02:51;;;;;;;;;;;14.70;99.90;;;14.49;100.00;93997.03;5032647;28;1809;-75
2023/10/20 08:05:24;;;;;;;;;;;14.70;99.90;;;14.67;100.00;94013.22;5049548;28;1628;-76
2023/10/20 08:07:53;;;;;;;;;;;14.80;99.90;;;14.61;100.00;94019.94;5040405;28;1542;-75
2023/10/20 08:10:21;;;;;;;;;;;14.90;99.90;;;14.74;100.00;94028.97;5047998;28;1577;-76
2023/10/20 08:12:49;;;;;;;;;;;14.90;99.90;;;14.77;100.00;94037.25;5013286;28;1982;-76
2023/10/20 08:15:16;;;;;;;;;;;15.00;99.90;;;14.69;100.00;94044.34;5014188;28;1830;-76
2023/10/20 08:17:48;;;;;;;;;;;15.00;99.90;;;14.57;100.00;94044.78;5045000;28;1661;-76
2023/10/20 08:20:16;;;;;;;;;;;15.00;99.90;;;14.66;100.00;94050.72;5042847;28;1566;-76
2023/10/20 08:22:43;;;;;;;;;;;15.00;99.90;;;14.72;100.00;94059.66;5026662;28;1652;-76
2023/10/20 08:25:11;;;;;;;;;;;15.00;99.90;;;14.85;100.00;94070.31;5012101;28;1919;-76
2023/10/20 08:27:38;;;;;;;;;;;15.00;99.90;;;15.01;100.00;94070.16;5042112;28;1759;-76
2023/10/20 08:30:06;;;;;;;;;;;15.10;99.90;;;15.07;100.00;94092.13;5013186;28;1693;-75
2023/10/20 08:32:33;;;;;;;;;;;15.20;99.90;;;14.99;100.00;94102.66;5046795;28;1993;-75
2023/10/20 08:35:00;;;;;;;;;;;15.20;99.90;;;15.08;100.00;94114.66;5014436;28;1569;-75
2023/10/20 08:37:28;;;;;;;;;;;15.20;99.90;;;15.22;100.00;94126.94;5042926;28;1640;-74
2023/10/20 08:39:55;;;;;;;;;;;15.30;99.90;;;15.15;100.00;94133.84;5025153;28;1719;-75
2023/10/20 08:42:22;;;;;;;;;;;15.30;99.90;;;15.31;100.00;94132.09;5041084;28;1939;-75
2023/10/20 08:44:50;;;;;;;;;;;15.40;99.90;;;15.24;100.00;94129.38;5042421;28;1377;-75
2023/10/20 08:47:17;;;;;;;;;;;15.30;99.90;;;15.19;100.00;94134.28;5041806;28;1363;-75
2023/10/20 08:49:46;;;;;;;;;;;15.30;99.90;;;15.07;100.00;94141.75;5032033;28;1119;-76
2023/10/20 08:52:13;;;;;;;;;;;15.20;99.90;;;15.01;100.00;94134.66;5041825;28;2364;-76
2023/10/20 08:54:41;;;;;;;;;;;15.30;99.90;;;15.06;100.00;94129.69;5027290;28;1171;-76
2023/10/20 08:57:10;;;;;;;;;;;15.30;99.90;;;15.04;100.00;94122.03;5032950;28;1404;-76
2023/10/20 08:59:37;;;;;;;;;;;15.40;99.90;;;15.25;100.00;94126.56;5042664;28;1392;-76
2023/10/20 09:02:05;;;;;;;;;;;15.50;99.90;;;15.20;100.00;94131.50;5045882;28;1378;-76
2023/10/20 09:04:33;;;;;;;;;;;15.50;99.90;;;15.25;100.00;94134.41;5040876;28;1349;-75
2023/10/20 09:07:11;;;;;;;;;;;15.50;99.90;;;15.26;100.00;94132.63;5024972;28;1531;-75
2023/10/20 09:09:38;;;;;;;;;;;15.50;99.90;;;15.55;100.00;94117.94;5039763;28;1355;-75
2023/10/20 09:12:08;;;;;;;;;;;15.70;99.90;;;15.62;100.00;94124.06;5039196;28;1894;-76
2023/10/20 09:14:42;;;;;;;;;;;15.90;99.90;;;15.60;100.00;94132.09;5024945;28;1431;-75
2023/10/20 09:17:24;;;;;;;;;;;15.80;99.90;;;15.81;100.00;94131.38;5044598;28;1384;-75
2023/10/20 09:19:52;;;;;;;;;;;16.00;99.90;;;15.83;100.00;94139.06;5015538;28;1404;-75
2023/10/20 09:22:30;;;;;;;;;;;15.90;99.90;;;15.91;100.00;94125.06;5043470;28;1471;-75
2023/10/20 09:24:57;;;;;;;;;;;15.80;99.90;;;15.82;100.00;94130.38;5047083;28;1345;-75
2023/10/20 09:27:25;;;;;;;;;;;15.90;99.90;;;15.86;100.00;94128.22;5022969;28;1533;-75
2023/10/20 09:29:54;;;;;;;;;;;15.80;99.90;;;15.87;100.00;94130.66;5042070;28;1437;-76
2023/10/20 09:32:22;;;;;;;;;;;15.80;99.90;;;15.92;100.00;94140.59;5040743;28;1910;-75
2023/10/20 09:34:49;;;;;;;;;;;15.90;99.90;;;16.13;100.00;94126.75;5043624;28;1531;-76
2023/10/20 09:37:23;;;;;;;;;;;15.80;99.90;;;16.06;100.00;94129.28;5021612;28;1427;-75
2023/10/20 09:39:54;;;;;;;;;;;15.90;99.90;;;15.94;100.00;94125.50;5039788;28;1459;-76
2023/10/20 09:42:24;;;;;;;;;;;15.80;99.90;;;15.98;100.00;94128.56;5028406;28;1465;-75
2023/10/20 09:45:21;;;;;;;;;;;15.90;99.90;;;15.89;100.00;94136.50;5026499;28;1415;-76
2023/10/20 09:47:52;;;;;;;;;;;15.90;99.90;;;15.87;100.00;94133.28;5011976;28;1489;-76
2023/10/20 09:50:20;;;;;;;;;;;16.00;99.90;;;15.65;100.00;94145.44;5021752;28;1393;-76
2023/10/20 09:52:47;;;;;;;;;;;16.10;99.90;;;15.61;100.00;94144.16;5041567;28;1906;-75
2023/10/20 09:55:14;;;;;;;;;;;16.00;99.90;;;15.66;100.00;94143.63;5025868;28;1458;-76
2023/10/20 09:57:42;;;;;;;;;;;16.00;99.90;;;15.69;100.00;94156.31;5024574;28;1387;-75
2023/10/20 10:00:09;;;;;;;;;;;16.10;99.90;;;15.92;100.00;94148.44;5011096;28;1435;-76
2023/10/20 10:02:36;;;;;;;;;;;16.20;99.90;;;15.67;100.00;94163.56;5027094;28;1392;-76
2023/10/20 10:05:08;;;;;;;;;;;16.10;99.90;;;15.39;100.00;94176.41;5039386;28;1419;-76
2023/10/20 10:07:35;;;;;;;;;;;16.00;99.90;;;15.29;100.00;94187.13;5024523;28;1546;-76
2023/10/20 10:10:03;;;;;;;;;;;15.90;99.90;;;15.45;100.00;94186.97;5026070;28;1501;-74
2023/10/20 10:12:34;;;;;;;;;;;15.90;99.90;;;15.38;100.00;94191.28;5023783;28;1898;-75
2023/10/20 10:15:14;;;;;;;;;;;15.80;99.90;;;15.23;100.00;94186.00;5036634;28;1486;-75
2023/10/20 10:17:46;;;;;;;;;;;15.60;99.90;;;15.04;100.00;94199.56;5043784;28;1385;-76
2023/10/20 10:20:24;;;;;;;;;;;15.60;99.90;;;14.83;100.00;94210.69;5042718;28;1389;-75
2023/10/20 10:23:09;;;;;;;;;;;15.40;99.90;;;15.05;100.00;94209.03;5038906;28;1703;-74
2023/10/20 10:25:40;;;;;;;;;;;15.50;99.90;;;15.21;100.00;94201.09;5022372;28;1454;-76
2023/10/20 10:28:15;;;;;;;;;;;15.60;99.90;;;15.44;100.00;94200.19;5023711;28;1419;-75
2023/10/20 10:30:44;;;;;;;;;;;15.80;99.90;;;15.51;100.00;94203.75;5026255;28;1482;-76
2023/10/20 10:33:12;;;;;;;;;;;15.90;99.90;;;15.33;100.00;94198.03;5024978;28;1918;-73
2023/10/20 10:35:39;;;;;;;;;;;16.00;99.90;;;15.47;100.00;94198.06;5022818;28;1452;-75
2023/10/20 10:38:27;;;;;;;;;;;15.90;99.90;;;15.42;100.00;94197.78;5020977;28;1826;-76
2023/10/20 10:40:55;;;;;;;;;;;15.90;99.90;;;15.36;100.00;94193.25;5012051;28;1603;-74
2023/10/20 10:43:22;;;;;;;;;;;15.90;99.90;;;15.31;100.00;94182.53;5037660;28;1582;-74
2023/10/20 10:45:52;;;;;;;;;;;15.80;99.90;;;15.45;100.00;94191.38;5023823;28;1496;-74
2023/10/20 10:48:27;;;;;;;;;;;15.80;99.90;;;15.38;100.00;94206.97;5042378;28;1480;-76
2023/10/20 10:50:59;;;;;;;;;;;15.70;99.90;;;15.44;100.00;94190.59;5040076;28;1714;-73
2023/10/20 10:53:26;;;;;;;;;;;15.70;99.90;;;15.44;100.00;94184.53;5044513;28;1902;-75
2023/10/20 10:55:54;;;;;;;;;;;15.80;99.90;;;15.34;100.00;94189.19;5044420;28;1553;-75
2023/10/20 10:58:23;;;;;;;;;;;15.80;99.90;;;15.46;100.00;94174.69;5029059;28;1856;-74
2023/10/20 11:00:50;;;;;;;;;;;15.90;99.90;;;15.32;100.00;94178.91;5033735;28;1517;-75
2023/10/20 11:03:19;;;;;;;;;;;15.80;99.90;;;15.27;100.00;94170.81;5037719;28;1594;-75
2023/10/20 11:05:50;;;;;;;;;;;15.90;99.90;;;15.35;100.00;94188.19;5020790;28;1476;-75
2023/10/20 11:08:19;;;;;;;;;;;15.70;99.90;;;15.21;100.00;94188.03;5032527;28;1375;-74
2023/10/20 11:10:46;;;;;;;;;;;15.70;99.90;;;14.93;100.00;94200.78;5032558;28;1752;-74
2023/10/20 11:13:15;;;;;;;;;;;15.50;99.90;;;14.73;100.00;94226.53;5026680;28;1906;-76
2023/10/20 11:15:47;;;;;;;;;;;15.40;99.90;;;14.85;100.00;94216.53;5044516;28;1896;-75
2023/10/20 11:18:16;;;;;;;;;;;15.30;99.90;;;14.97;100.00;94206.50;5051193;28;1917;-75
2023/10/20 11:20:47;;;;;;;;;;;15.30;99.90;;;15.13;100.00;94210.78;5028332;28;1587;-75
2023/10/20 11:23:14;;;;;;;;;;;15.50;99.90;;;15.25;100.00;94210.16;5014102;28;1671;-76
2023/10/20 11:25:42;;;;;;;;;;;15.60;99.90;;;15.24;100.00;94215.59;5026350;28;1590;-76
2023/10/20 11:28:09;;;;;;;;;;;15.60;99.90;;;15.43;100.00;94211.66;5029446;28;1595;-76
2023/10/20 11:30:38;;;;;;;;;;;15.70;99.90;;;15.50;100.00;94203.91;5042670;28;1374;-75
2023/10/20 11:33:06;;;;;;;;;;;15.80;99.90;;;15.57;100.00;94212.66;5041785;28;1930;-75
2023/10/20 11:35:35;;;;;;;;;;;15.90;99.90;;;15.59;100.00;94213.31;5044583;28;1308;-75
2023/10/20 11:38:03;;;;;;;;;;;16.00;99.90;;;15.47;100.00;94213.75;5039861;28;1420;-75
2023/10/20 11:40:30;;;;;;;;;;;16.00;99.90;;;15.41;100.00;94218.84;5045907;28;1847;-75
2023/10/20 11:42:57;;;;;;;;;;;15.90;99.90;;;15.47;100.00;94212.94;5031542;28;1468;-74
2023/10/20 11:45:24;;;;;;;;;;;15.90;99.90;;;15.58;100.00;94236.03;5027918;28;1467;-75
2023/10/20 11:47:52;;;;;;;;;;;15.90;99.90;;;15.65;100.00;94226.47;5028573;28;1100;-75
2023/10/20 11:50:19;;;;;;;;;;;16.00;99.90;;;15.73;100.00;94220.38;5008628;28;1436;-75
2023/10/20 11:52:47;;;;;;;;;;;16.10;99.90;;;15.83;100.00;94234.00;5046071;28;2447;-75